createdAt,value
2023-11-15T00:00:18.972Z,112.53
2023-11-15T00:02:48.386Z,109.30
2023-11-15T00:05:16.674Z,108.60
2023-11-15T00:07:45.346Z,111.17
2023-11-15T00:10:14.801Z,109.27
2023-11-15T00:12:44.199Z,110.03
2023-11-15T00:15:15.404Z,106.47
2023-11-15T00:17:43.826Z,106.90
2023-11-15T00:20:14.938Z,109.83
2023-11-15T00:22:43.386Z,106.67
2023-11-15T00:25:11.574Z,108.60
2023-11-15T00:27:39.653Z,109.80
2023-11-15T00:30:12.078Z,109.50
2023-11-15T00:32:41.115Z,107.83
2023-11-15T00:35:13.403Z,107.23
2023-11-15T00:37:43.465Z,110.10
2023-11-15T00:40:14.837Z,107.00
2023-11-15T00:42:43.179Z,107.47
2023-11-15T00:45:13.237Z,108.07
2023-11-15T00:47:41.514Z,108.00
2023-11-15T00:50:10.272Z,109.27
2023-11-15T00:52:38.705Z,106.97
2023-11-15T00:55:09.629Z,107.93
2023-11-15T00:57:37.702Z,102.40
2023-11-15T01:00:22.932Z,103.40
2023-11-15T01:02:52.199Z,105.60
2023-11-15T01:05:20.686Z,102.20
2023-11-15T01:07:49.006Z,104.37
2023-11-15T01:10:20.680Z,100.57
2023-11-15T01:12:49.169Z,100.63
2023-11-15T01:15:17.773Z,99.67
2023-11-15T01:17:47.915Z,97.60
2023-11-15T01:20:16.310Z,92.77
2023-11-15T01:22:44.455Z,92.50
2023-11-15T01:25:13.886Z,92.03
2023-11-15T01:27:43.739Z,96.60
2023-11-15T01:30:12.536Z,91.93
2023-11-15T01:32:41.403Z,97.67
2023-11-15T01:35:10.344Z,95.23
2023-11-15T01:37:38.771Z,96.40
2023-11-15T01:40:08.159Z,99.87
2023-11-15T01:42:36.268Z,97.00
2023-11-15T01:45:07.468Z,98.73
2023-11-15T01:47:36.568Z,99.17
2023-11-15T01:50:11.231Z,95.60
2023-11-15T01:52:40.121Z,101.60
2023-11-15T01:55:11.409Z,104.00
2023-11-15T01:57:39.971Z,103.57
2023-11-15T02:00:11.442Z,101.90
2023-11-15T02:02:40.165Z,102.80
2023-11-15T02:05:09.486Z,98.77
2023-11-15T02:07:38.752Z,94.83
2023-11-15T02:10:08.855Z,101.10
2023-11-15T02:12:36.958Z,102.20
2023-11-15T02:15:05.889Z,102.53
2023-11-15T02:17:35.479Z,102.07
2023-11-15T02:20:07.345Z,104.30
2023-11-15T02:22:36.738Z,103.70
2023-11-15T02:25:06.927Z,104.73
2023-11-15T02:27:34.944Z,110.37
2023-11-15T02:30:03.025Z,106.97
2023-11-15T02:32:31.047Z,105.27
2023-11-15T02:34:59.055Z,102.10
2023-11-15T02:37:27.046Z,106.20
2023-11-15T02:39:55.052Z,105.80
2023-11-15T02:42:24.688Z,107.23
2023-11-15T02:44:52.846Z,109.07
2023-11-15T02:47:20.973Z,108.60
2023-11-15T02:49:49.061Z,103.97
2023-11-15T02:52:17.087Z,102.93
2023-11-15T02:54:45.096Z,101.37
2023-11-15T02:57:13.118Z,102.80
2023-11-15T02:59:42.921Z,102.33
2023-11-15T03:02:11.518Z,103.53
2023-11-15T03:04:40.510Z,103.80
2023-11-15T03:07:08.498Z,105.97
2023-11-15T03:09:37.101Z,109.33
2023-11-15T03:12:05.793Z,105.63
2023-11-15T03:14:34.011Z,102.73
2023-11-15T03:17:12.492Z,100.90
2023-11-15T03:19:40.576Z,104.20
2023-11-15T03:22:08.743Z,102.50
2023-11-15T03:24:36.863Z,103.87
2023-11-15T03:27:05.947Z,106.73
2023-11-15T03:29:34.497Z,102.80
2023-11-15T03:32:03.981Z,99.40
2023-11-15T03:34:32.201Z,98.43
2023-11-15T03:37:00.253Z,97.07
2023-11-15T03:39:29.476Z,98.43
2023-11-15T03:41:58.317Z,99.33
2023-11-15T03:44:26.368Z,102.57
2023-11-15T03:46:54.430Z,100.47
2023-11-15T03:49:23.885Z,101.60
2023-11-15T03:51:51.944Z,103.60
2023-11-15T03:54:20.025Z,102.93
2023-11-15T03:56:48.277Z,102.50
2023-11-15T03:59:16.320Z,101.27
2023-11-15T04:04:15.445Z,100.90
2023-11-15T04:06:45.088Z,101.80
2023-11-15T04:09:13.088Z,97.77
2023-11-15T04:11:41.588Z,95.43
2023-11-15T04:14:09.791Z,91.90
2023-11-15T04:16:38.029Z,93.40
2023-11-15T04:19:06.196Z,91.87
2023-11-15T04:21:34.253Z,92.10
2023-11-15T04:24:03.615Z,92.93
2023-11-15T04:26:32.043Z,93.70
2023-11-15T04:29:00.064Z,92.83
2023-11-15T04:31:28.590Z,90.80
2023-11-15T04:33:56.641Z,89.03
2023-11-15T04:36:24.662Z,86.60
2023-11-15T04:38:52.874Z,84.87
2023-11-15T04:41:22.516Z,86.10
2023-11-15T04:43:50.573Z,89.43
2023-11-15T04:46:19.679Z,84.77
2023-11-15T04:48:47.797Z,87.07
2023-11-15T04:51:15.878Z,86.50
2023-11-15T04:53:43.902Z,83.97
2023-11-15T04:56:12.378Z,81.40
2023-11-15T04:58:41.850Z,84.43
2023-11-15T05:01:10.274Z,82.13
2023-11-15T05:03:38.572Z,79.00
2023-11-15T05:06:08.662Z,79.77
2023-11-15T05:08:36.753Z,86.20
2023-11-15T05:11:06.209Z,86.10
2023-11-15T05:13:34.285Z,85.37
2023-11-15T05:16:05.049Z,84.30
2023-11-15T05:18:33.190Z,84.67
2023-11-15T05:21:01.271Z,83.93
2023-11-15T05:23:30.022Z,81.70
2023-11-15T05:25:58.292Z,82.37
2023-11-15T05:28:27.044Z,85.13
2023-11-15T05:30:56.026Z,85.43
2023-11-15T05:33:25.601Z,82.50
2023-11-15T05:35:54.055Z,85.83
2023-11-15T05:38:22.397Z,85.00
2023-11-15T05:40:50.794Z,84.13
2023-11-15T05:43:18.802Z,86.33
2023-11-15T05:45:46.793Z,86.60
2023-11-15T05:48:14.867Z,82.00
2023-11-15T05:50:44.325Z,86.07
2023-11-15T05:53:12.341Z,87.70
2023-11-15T05:55:41.661Z,83.53
2023-11-15T05:58:10.667Z,85.00
2023-11-15T06:00:39.256Z,81.50
2023-11-15T06:03:08.139Z,80.73
2023-11-15T06:05:36.338Z,81.70
2023-11-15T06:08:06.217Z,78.60
2023-11-15T06:10:34.335Z,82.17
2023-11-15T06:13:02.419Z,83.03
2023-11-15T06:15:30.409Z,80.30
2023-11-15T06:17:58.491Z,82.10
2023-11-15T06:20:26.515Z,81.90
2023-11-15T06:22:54.579Z,81.73
2023-11-15T06:25:24.245Z,83.47
2023-11-15T06:27:52.321Z,84.53
2023-11-15T06:30:20.488Z,83.40
2023-11-15T06:32:49.342Z,82.23
2023-11-15T06:35:20.266Z,85.67
2023-11-15T06:37:49.510Z,91.30
2023-11-15T06:40:18.078Z,89.17
2023-11-15T06:42:47.588Z,85.70
2023-11-15T06:45:15.802Z,80.57
2023-11-15T06:47:44.034Z,82.97
2023-11-15T06:50:14.248Z,77.90
2023-11-15T06:52:42.266Z,85.07
2023-11-15T06:55:12.633Z,88.90
2023-11-15T06:57:42.748Z,86.40
2023-11-15T07:00:14.308Z,80.47
2023-11-15T07:02:43.549Z,97.70
2023-11-15T07:05:12.515Z,94.60
2023-11-15T07:07:41.073Z,95.00
2023-11-15T07:10:10.928Z,94.90
2023-11-15T07:12:41.181Z,107.47
2023-11-15T07:15:15.482Z,102.07
2023-11-15T07:17:45.789Z,102.97
2023-11-15T07:20:15.826Z,98.83
2023-11-15T07:22:44.049Z,103.33
2023-11-15T07:25:14.065Z,106.03
2023-11-15T07:27:42.307Z,100.10
2023-11-15T07:30:13.523Z,100.77
2023-11-15T07:32:41.872Z,99.00
2023-11-15T07:35:11.640Z,97.97
2023-11-15T07:37:41.260Z,102.80
2023-11-15T07:40:13.531Z,99.17
2023-11-15T07:42:42.229Z,95.23
2023-11-15T07:45:11.386Z,97.50
2023-11-15T07:47:40.848Z,101.33
2023-11-15T07:50:12.677Z,97.37
2023-11-15T07:52:41.333Z,99.87
2023-11-15T07:55:11.865Z,99.63
2023-11-15T07:57:40.015Z,105.40
2023-11-15T08:00:12.509Z,111.27
2023-11-15T08:02:42.443Z,108.23
2023-11-15T08:05:12.241Z,98.00
2023-11-15T08:07:40.269Z,99.23
2023-11-15T08:10:09.208Z,104.03
2023-11-15T08:12:38.998Z,107.70
2023-11-15T08:15:08.753Z,100.80
2023-11-15T08:17:37.937Z,106.67
2023-11-15T08:20:11.467Z,102.40
2023-11-15T08:22:41.559Z,97.47
2023-11-15T08:25:12.156Z,101.17
2023-11-15T08:27:41.884Z,100.03
2023-11-15T08:30:14.195Z,102.87
2023-11-15T08:32:43.889Z,112.70
2023-11-15T08:35:12.166Z,104.57
2023-11-15T08:37:41.810Z,104.67
2023-11-15T08:40:22.662Z,102.87
2023-11-15T08:42:56.819Z,96.10
2023-11-15T08:45:25.400Z,118.33
2023-11-15T08:47:58.607Z,111.70
2023-11-15T08:50:28.445Z,106.03
2023-11-15T08:52:59.128Z,110.10
2023-11-15T08:55:27.433Z,101.53
2023-11-15T08:57:57.458Z,100.33
2023-11-15T09:00:25.808Z,107.77
2023-11-15T09:02:54.055Z,109.60
2023-11-15T09:05:24.302Z,102.93
2023-11-15T09:07:52.448Z,110.30
2023-11-15T09:10:22.973Z,86.77
2023-11-15T09:12:53.516Z,103.63
2023-11-15T09:15:22.135Z,98.60
2023-11-15T09:17:51.901Z,101.37
2023-11-15T09:20:22.956Z,108.87
2023-11-15T09:22:54.989Z,104.77
2023-11-15T09:25:27.953Z,111.90
2023-11-15T09:27:59.194Z,106.20
2023-11-15T09:30:28.411Z,115.80
2023-11-15T09:32:56.848Z,112.37
2023-11-15T09:35:29.411Z,112.30
2023-11-15T09:37:59.508Z,113.30
2023-11-15T09:40:30.129Z,110.33
2023-11-15T09:43:01.580Z,112.47
2023-11-15T09:45:31.239Z,108.23
2023-11-15T09:48:02.373Z,113.83
2023-11-15T09:50:34.636Z,113.50
2023-11-15T09:53:07.029Z,108.27
2023-11-15T09:55:36.582Z,109.37
2023-11-15T09:58:05.159Z,110.27
2023-11-15T10:00:33.717Z,109.60
2023-11-15T10:03:02.866Z,108.67
2023-11-15T10:05:33.376Z,110.07
2023-11-15T10:08:11.960Z,98.37
2023-11-15T10:10:44.409Z,101.97
2023-11-15T10:13:19.867Z,105.20
2023-11-15T10:15:48.388Z,104.77
2023-11-15T10:18:20.541Z,107.93
2023-11-15T10:20:48.804Z,104.20
2023-11-15T10:23:30.143Z,102.37
2023-11-15T10:26:01.462Z,103.20
2023-11-15T10:28:33.929Z,90.30
2023-11-15T10:31:04.561Z,80.10
2023-11-15T10:33:33.623Z,78.80
2023-11-15T10:36:18.227Z,82.03
2023-11-15T10:38:48.070Z,81.73
2023-11-15T10:41:20.399Z,61.03
2023-11-15T10:43:49.952Z,63.17
2023-11-15T10:46:20.080Z,58.50
2023-11-15T10:48:50.932Z,50.20
2023-11-15T10:51:23.710Z,44.43
2023-11-15T10:53:52.530Z,44.00
2023-11-15T10:56:23.655Z,35.77
2023-11-15T10:58:54.445Z,31.50
2023-11-15T11:01:24.491Z,32.30
2023-11-15T11:03:57.194Z,29.30
2023-11-15T11:06:33.263Z,25.63
2023-11-15T11:09:11.545Z,24.80
2023-11-15T11:11:47.582Z,22.87
2023-11-15T11:14:22.329Z,20.77
2023-11-15T11:16:50.791Z,19.73
2023-11-15T11:19:23.428Z,20.07
2023-11-15T11:22:09.926Z,20.73
2023-11-15T11:24:43.870Z,21.67
2023-11-15T11:27:34.915Z,22.70
2023-11-15T11:30:22.241Z,23.60
2023-11-15T11:32:52.164Z,21.27
2023-11-15T11:35:35.724Z,21.93
2023-11-15T11:38:05.345Z,22.73
2023-11-15T11:40:40.153Z,27.33
2023-11-15T11:43:23.525Z,29.53
2023-11-15T11:45:55.272Z,31.37
2023-11-15T11:48:25.347Z,29.93
2023-11-15T11:51:06.493Z,31.27
2023-11-15T11:53:39.410Z,33.80
2023-11-15T11:56:11.556Z,37.70
2023-11-15T11:58:41.576Z,38.13
2023-11-15T12:01:11.669Z,35.67
2023-11-15T12:03:46.716Z,34.57
2023-11-15T12:06:15.194Z,36.90
2023-11-15T12:08:50.636Z,36.67
2023-11-15T12:11:27.124Z,34.40
2023-11-15T12:13:58.214Z,33.40
2023-11-15T12:16:28.518Z,33.47
2023-11-15T12:19:04.034Z,38.63
2023-11-15T12:21:34.399Z,56.63
2023-11-15T12:24:06.072Z,56.90
2023-11-15T12:26:43.506Z,53.67
2023-11-15T12:29:36.309Z,49.90
2023-11-15T12:32:05.751Z,43.60
2023-11-15T12:34:34.258Z,39.57
2023-11-15T12:37:02.489Z,41.47
2023-11-15T12:39:37.837Z,41.93
2023-11-15T12:42:06.624Z,41.83
2023-11-15T12:44:45.931Z,39.77
2023-11-15T12:47:17.193Z,35.97
2023-11-15T12:49:45.301Z,34.60
2023-11-15T12:52:13.367Z,32.93
2023-11-15T12:54:55.291Z,31.07
2023-11-15T12:57:23.366Z,30.43
2023-11-15T12:59:53.241Z,28.77
2023-11-15T13:02:25.914Z,27.73
2023-11-15T13:04:55.001Z,27.03
2023-11-15T13:07:23.180Z,24.77
2023-11-15T13:09:50.263Z,24.20
2023-11-15T13:12:25.786Z,22.40
2023-11-15T13:14:56.235Z,22.17
2023-11-15T13:17:25.050Z,21.30
2023-11-15T13:19:53.279Z,20.03
2023-11-15T13:22:21.316Z,20.97
2023-11-15T13:24:51.148Z,20.33
2023-11-15T13:27:21.816Z,19.43
2023-11-15T13:29:51.768Z,19.57
2023-11-15T13:32:21.490Z,19.17
2023-11-15T13:34:52.039Z,19.50
2023-11-15T13:37:20.655Z,20.37
2023-11-15T13:39:49.063Z,21.73
2023-11-15T13:42:17.162Z,22.37
2023-11-15T13:44:46.237Z,23.60
2023-11-15T13:47:15.128Z,23.43
2023-11-15T13:49:48.097Z,23.97
2023-11-15T13:52:17.125Z,24.10
2023-11-15T13:54:45.934Z,24.60
2023-11-15T13:57:14.558Z,24.20
2023-11-15T13:59:42.846Z,25.70
2023-11-15T14:02:10.955Z,27.17
2023-11-15T14:04:39.019Z,27.80
2023-11-15T14:07:08.494Z,30.37
2023-11-15T14:09:37.515Z,31.53
2023-11-15T14:12:07.193Z,32.20
2023-11-15T14:14:35.311Z,31.83
2023-11-15T14:17:08.214Z,28.17
2023-11-15T14:19:38.151Z,25.63
2023-11-15T14:22:07.162Z,24.67
2023-11-15T14:24:36.840Z,24.00
2023-11-15T14:27:05.697Z,23.23
2023-11-15T14:29:34.027Z,21.33
2023-11-15T14:32:02.174Z,21.80
2023-11-15T14:34:30.285Z,21.67
2023-11-15T14:36:58.706Z,21.90
2023-11-15T14:39:27.961Z,21.87
2023-11-15T14:42:00.266Z,21.67
2023-11-15T14:44:29.959Z,21.30
2023-11-15T14:46:58.757Z,22.27
2023-11-15T14:49:26.872Z,23.37
2023-11-15T14:52:08.405Z,22.80
2023-11-15T14:54:41.742Z,23.37
2023-11-15T14:57:12.028Z,23.57
2023-11-15T14:59:44.697Z,24.07
2023-11-15T15:02:13.259Z,24.80
2023-11-15T15:04:45.543Z,23.97
2023-11-15T15:07:15.625Z,24.13
2023-11-15T15:09:43.708Z,24.87
2023-11-15T15:12:14.224Z,25.30
2023-11-15T15:14:42.699Z,25.87
2023-11-15T15:17:21.194Z,25.70
2023-11-15T15:19:54.179Z,26.77
2023-11-15T15:22:23.387Z,27.97
2023-11-15T15:24:51.686Z,29.03
2023-11-15T15:27:22.777Z,30.07
2023-11-15T15:29:52.099Z,30.83
2023-11-15T15:32:20.420Z,31.50
2023-11-15T15:34:48.514Z,31.77
2023-11-15T15:37:16.619Z,32.93
2023-11-15T15:39:44.952Z,32.90
2023-11-15T15:42:13.207Z,33.50
2023-11-15T15:44:42.829Z,34.37
2023-11-15T15:47:10.958Z,37.20
2023-11-15T15:49:46.699Z,34.70
2023-11-15T15:52:15.756Z,34.10
2023-11-15T15:54:44.425Z,34.03
2023-11-15T15:57:12.642Z,34.93
2023-11-15T15:59:47.292Z,35.63
2023-11-15T16:02:15.350Z,34.90
2023-11-15T16:04:44.364Z,37.20
2023-11-15T16:07:12.433Z,37.83
2023-11-15T16:09:42.525Z,39.17
2023-11-15T16:12:10.916Z,42.37
2023-11-15T16:14:39.053Z,40.40
2023-11-15T16:17:08.971Z,40.80
2023-11-15T16:19:37.098Z,44.57
2023-11-15T16:22:05.296Z,44.17
2023-11-15T16:24:33.345Z,43.27
2023-11-15T16:27:04.467Z,44.27
2023-11-15T16:29:34.371Z,44.73
2023-11-15T16:32:02.838Z,45.37
2023-11-15T16:34:32.270Z,43.17
2023-11-15T16:37:00.319Z,44.17
2023-11-15T16:39:28.587Z,42.37
2023-11-15T16:41:56.808Z,42.53
2023-11-15T16:44:26.892Z,41.77
2023-11-15T16:46:54.969Z,40.17
2023-11-15T16:49:23.476Z,40.90
2023-11-15T16:51:53.642Z,41.07
2023-11-15T16:54:22.995Z,38.63
2023-11-15T16:56:51.392Z,39.00
2023-11-15T16:59:19.570Z,40.13
2023-11-15T17:01:48.244Z,39.67
2023-11-15T17:04:16.742Z,40.03
2023-11-15T17:06:44.975Z,40.10
2023-11-15T17:09:15.661Z,42.27
2023-11-15T17:11:43.822Z,41.30
2023-11-15T17:14:14.155Z,40.83
2023-11-15T17:16:42.369Z,41.37
2023-11-15T17:19:10.360Z,42.10
2023-11-15T17:21:42.726Z,43.80
2023-11-15T17:24:12.197Z,44.50
2023-11-15T17:26:46.071Z,44.43
2023-11-15T17:29:15.278Z,46.00
2023-11-15T17:31:45.169Z,48.80
2023-11-15T17:34:13.947Z,47.27
2023-11-15T17:36:42.300Z,49.83
2023-11-15T17:39:13.151Z,47.03
2023-11-15T17:41:43.378Z,47.17
2023-11-15T17:44:15.808Z,48.13
2023-11-15T17:46:44.133Z,47.63
2023-11-15T17:49:12.569Z,46.93
2023-11-15T17:51:44.505Z,45.47
2023-11-15T17:54:12.867Z,46.00
2023-11-15T17:56:42.717Z,44.30
2023-11-15T17:59:11.062Z,42.43
2023-11-15T18:01:39.958Z,43.53
2023-11-15T18:04:09.807Z,45.53
2023-11-15T18:06:38.436Z,44.30
2023-11-15T18:09:08.358Z,43.10
2023-11-15T18:11:37.224Z,41.17
2023-11-15T18:14:07.215Z,41.67
2023-11-15T18:16:35.554Z,41.47
2023-11-15T18:19:06.438Z,42.07
2023-11-15T18:21:34.750Z,42.37
2023-11-15T18:24:03.110Z,43.60
2023-11-15T18:26:32.927Z,45.43
2023-11-15T18:29:02.151Z,47.60
2023-11-15T18:31:31.975Z,50.10
2023-11-15T18:34:00.662Z,51.60
2023-11-15T18:36:30.832Z,52.00
2023-11-15T18:38:59.163Z,50.97
2023-11-15T18:41:27.846Z,47.27
2023-11-15T18:43:57.940Z,50.50
2023-11-15T18:46:27.690Z,51.10
2023-11-15T18:48:57.462Z,53.30
2023-11-15T18:51:29.442Z,54.33
2023-11-15T18:53:58.190Z,57.40
2023-11-15T18:56:27.398Z,57.10
2023-11-15T18:58:55.943Z,56.17
2023-11-15T19:01:24.062Z,58.10
2023-11-15T19:03:52.388Z,56.97
2023-11-15T19:06:22.975Z,55.40
2023-11-15T19:08:51.203Z,55.70
2023-11-15T19:11:18.312Z,56.23
2023-11-15T19:13:47.743Z,57.53
2023-11-15T19:16:19.807Z,56.17
2023-11-15T19:18:47.945Z,56.70
2023-11-15T19:21:16.506Z,56.50
2023-11-15T19:23:46.698Z,57.50
2023-11-15T19:26:15.415Z,59.90
2023-11-15T19:28:43.680Z,58.27
2023-11-15T19:31:11.758Z,55.60
2023-11-15T19:33:40.772Z,56.50
2023-11-15T19:36:09.646Z,54.50
2023-11-15T19:38:38.060Z,51.30
2023-11-15T19:41:09.807Z,50.40
2023-11-15T19:43:37.930Z,52.90
2023-11-15T19:46:07.106Z,54.53
2023-11-15T19:48:35.811Z,54.00
2023-11-15T19:51:03.910Z,53.87
2023-11-15T19:53:31.989Z,53.40
2023-11-15T19:56:00.812Z,53.10
2023-11-15T19:58:32.045Z,53.00
2023-11-15T20:01:03.443Z,55.70
2023-11-15T20:03:31.714Z,53.40
2023-11-15T20:05:59.764Z,51.40
2023-11-15T20:08:27.845Z,50.57
2023-11-15T20:10:55.965Z,51.40
2023-11-15T20:13:24.379Z,50.53
2023-11-15T20:15:54.605Z,48.73
2023-11-15T20:18:22.703Z,52.20
2023-11-15T20:20:51.156Z,51.73
2023-11-15T20:23:19.799Z,52.77
2023-11-15T20:25:48.726Z,55.80
2023-11-15T20:28:17.640Z,55.20
2023-11-15T20:30:46.963Z,55.17
2023-11-15T20:33:16.549Z,55.37
2023-11-15T20:35:44.591Z,55.80
2023-11-15T20:38:12.788Z,55.50
2023-11-15T20:40:40.791Z,52.87
2023-11-15T20:43:09.928Z,52.50
2023-11-15T20:45:39.286Z,50.73
2023-11-15T20:48:20.123Z,51.33
2023-11-15T20:50:48.684Z,48.67
2023-11-15T20:53:18.001Z,50.20
2023-11-15T20:55:47.272Z,52.10
2023-11-15T20:58:16.141Z,52.00
2023-11-15T21:00:44.347Z,55.20
2023-11-15T21:03:13.989Z,52.67
2023-11-15T21:05:43.800Z,53.90
2023-11-15T21:08:14.096Z,54.10
2023-11-15T21:10:43.325Z,56.77
2023-11-15T21:13:11.970Z,55.17
2023-11-15T21:15:40.333Z,55.97
2023-11-15T21:18:10.277Z,57.10
2023-11-15T21:20:40.903Z,58.03
2023-11-15T21:23:10.309Z,56.80
2023-11-15T21:25:38.528Z,53.43
2023-11-15T21:28:07.463Z,54.73
2023-11-15T21:30:38.080Z,55.70
2023-11-15T21:33:11.072Z,56.20
2023-11-15T21:35:39.615Z,53.00
2023-11-15T21:38:09.054Z,53.80
2023-11-15T21:40:39.133Z,52.77
2023-11-15T21:43:07.341Z,49.83
2023-11-15T21:45:35.452Z,47.20
2023-11-15T21:48:04.147Z,50.70
2023-11-15T21:50:32.642Z,51.20
2023-11-15T21:53:04.397Z,48.20
2023-11-15T21:55:32.906Z,48.40
2023-11-15T21:58:08.192Z,48.27
2023-11-15T22:00:36.689Z,47.63
2023-11-15T22:03:04.791Z,47.17
2023-11-15T22:05:32.945Z,44.30
2023-11-15T22:08:02.235Z,46.57
2023-11-15T22:10:30.541Z,42.73
2023-11-15T22:12:58.665Z,43.50
2023-11-15T22:15:29.447Z,41.67
2023-11-15T22:17:57.688Z,43.20
2023-11-15T22:20:25.801Z,41.53
2023-11-15T22:22:54.048Z,40.50
2023-11-15T22:25:22.291Z,40.43
2023-11-15T22:27:50.323Z,40.27
2023-11-15T22:30:18.329Z,42.40
2023-11-15T22:32:48.139Z,41.33
2023-11-15T22:35:16.611Z,41.17
2023-11-15T22:37:44.874Z,42.17
2023-11-15T22:40:13.994Z,40.80
2023-11-15T22:42:42.327Z,40.13
2023-11-15T22:45:11.247Z,40.47
2023-11-15T22:47:39.412Z,39.90
2023-11-15T22:50:12.268Z,38.10
2023-11-15T22:52:40.640Z,38.30
2023-11-15T22:55:09.853Z,40.97
2023-11-15T22:57:37.919Z,41.60
2023-11-15T23:00:07.489Z,43.93
2023-11-15T23:02:36.318Z,44.87
2023-11-15T23:05:05.922Z,45.50
2023-11-15T23:07:36.322Z,41.30
2023-11-15T23:10:05.001Z,42.13
2023-11-15T23:12:33.230Z,42.27
2023-11-15T23:15:01.379Z,40.87
2023-11-15T23:17:29.976Z,39.73
2023-11-15T23:19:58.011Z,40.00
2023-11-15T23:22:26.007Z,40.20
2023-11-15T23:24:56.000Z,39.37
2023-11-15T23:27:25.432Z,41.57
2023-11-15T23:32:21.800Z,41.10
2023-11-15T23:34:49.963Z,41.90
2023-11-15T23:37:17.980Z,40.50
2023-11-15T23:39:48.632Z,40.57
2023-11-15T23:42:23.582Z,42.07
2023-11-15T23:44:52.028Z,39.83
2023-11-15T23:47:20.972Z,42.37
2023-11-15T23:49:49.160Z,41.60
2023-11-15T23:52:18.981Z,41.90
2023-11-15T23:54:47.508Z,41.47
2023-11-15T23:57:17.328Z,43.50
2023-11-15T23:59:45.361Z,44.73
